sensor_id;sensor_type;location;lat;lon;timestamp;P1;durP1;ratioP1;P2;durP2;ratioP2
76725;SDS011;65651;53.154;17.916;2023-05-10T00:02:26;4.90;;;2.90;;
76725;SDS011;65651;53.154;17.916;2023-05-10T00:04:53;5.70;;;3.50;;
76725;SDS011;65651;53.154;17.916;2023-05-10T00:07:20;6.60;;;3.60;;
76725;SDS011;65651;53.154;17.916;2023-05-10T00:09:48;8.30;;;4.00;;
76725;SDS011;65651;53.154;17.916;2023-05-10T00:12:15;7.60;;;3.20;;
76725;SDS011;65651;53.154;17.916;2023-05-10T00:14:42;6.00;;;3.60;;
76725;SDS011;65651;53.154;17.916;2023-05-10T00:17:10;6.70;;;3.90;;
76725;SDS011;65651;53.154;17.916;2023-05-10T00:19:37;8.60;;;3.40;;
76725;SDS011;65651;53.154;17.916;2023-05-10T00:22:05;7.30;;;3.30;;
76725;SDS011;65651;53.154;17.916;2023-05-10T00:24:35;8.50;;;3.80;;
76725;SDS011;65651;53.154;17.916;2023-05-10T00:27:02;5.80;;;3.50;;
76725;SDS011;65651;53.154;17.916;2023-05-10T00:29:31;8.60;;;4.00;;
76725;SDS011;65651;53.154;17.916;2023-05-10T00:31:59;5.30;;;3.40;;
76725;SDS011;65651;53.154;17.916;2023-05-10T00:34:26;7.90;;;4.20;;
76725;SDS011;65651;53.154;17.916;2023-05-10T00:36:53;5.90;;;3.60;;
76725;SDS011;65651;53.154;17.916;2023-05-10T00:39:25;4.10;;;3.00;;
76725;SDS011;65651;53.154;17.916;2023-05-10T00:41:53;7.20;;;3.60;;
76725;SDS011;65651;53.154;17.916;2023-05-10T00:44:21;6.50;;;3.80;;
76725;SDS011;65651;53.154;17.916;2023-05-10T00:46:50;6.00;;;3.60;;
76725;SDS011;65651;53.154;17.916;2023-05-10T00:49:18;5.90;;;3.20;;
76725;SDS011;65651;53.154;17.916;2023-05-10T00:51:46;5.10;;;3.00;;
76725;SDS011;65651;53.154;17.916;2023-05-10T00:54:14;6.20;;;3.00;;
76725;SDS011;65651;53.154;17.916;2023-05-10T00:56:42;6.10;;;3.80;;
76725;SDS011;65651;53.154;17.916;2023-05-10T00:59:16;4.70;;;2.90;;
76725;SDS011;65651;53.154;17.916;2023-05-10T01:01:44;8.30;;;3.80;;
76725;SDS011;65651;53.154;17.916;2023-05-10T01:04:14;8.90;;;3.80;;
76725;SDS011;65651;53.154;17.916;2023-05-10T01:06:42;6.40;;;3.20;;
76725;SDS011;65651;53.154;17.916;2023-05-10T01:09:10;8.50;;;3.30;;
76725;SDS011;65651;53.154;17.916;2023-05-10T01:11:38;7.70;;;4.40;;
76725;SDS011;65651;53.154;17.916;2023-05-10T01:14:06;6.30;;;2.90;;
76725;SDS011;65651;53.154;17.916;2023-05-10T01:16:36;5.80;;;3.20;;
76725;SDS011;65651;53.154;17.916;2023-05-10T01:19:09;4.90;;;3.30;;
76725;SDS011;65651;53.154;17.916;2023-05-10T01:35:57;6.60;;;3.30;;
76725;SDS011;65651;53.154;17.916;2023-05-10T01:38:53;8.20;;;3.50;;
76725;SDS011;65651;53.154;17.916;2023-05-10T01:46:37;7.10;;;3.70;;
76725;SDS011;65651;53.154;17.916;2023-05-10T01:49:10;6.50;;;3.50;;
76725;SDS011;65651;53.154;17.916;2023-05-10T01:51:47;6.90;;;3.90;;
76725;SDS011;65651;53.154;17.916;2023-05-10T01:54:20;5.90;;;4.80;;
76725;SDS011;65651;53.154;17.916;2023-05-10T01:56:52;9.60;;;3.70;;
76725;SDS011;65651;53.154;17.916;2023-05-10T01:59:29;7.30;;;4.00;;
76725;SDS011;65651;53.154;17.916;2023-05-10T02:02:06;3.80;;;2.50;;
76725;SDS011;65651;53.154;17.916;2023-05-10T02:04:38;5.60;;;3.70;;
76725;SDS011;65651;53.154;17.916;2023-05-10T02:07:07;6.30;;;3.60;;
76725;SDS011;65651;53.154;17.916;2023-05-10T02:09:36;7.00;;;3.10;;
76725;SDS011;65651;53.154;17.916;2023-05-10T02:12:05;5.60;;;3.20;;
76725;SDS011;65651;53.154;17.916;2023-05-10T02:14:35;6.70;;;3.30;;
76725;SDS011;65651;53.154;17.916;2023-05-10T02:17:05;8.40;;;2.90;;
76725;SDS011;65651;53.154;17.916;2023-05-10T02:19:38;8.30;;;4.10;;
76725;SDS011;65651;53.154;17.916;2023-05-10T02:22:07;6.30;;;3.80;;
76725;SDS011;65651;53.154;17.916;2023-05-10T02:24:38;8.30;;;3.60;;
76725;SDS011;65651;53.154;17.916;2023-05-10T02:27:07;6.30;;;3.20;;
76725;SDS011;65651;53.154;17.916;2023-05-10T02:29:36;8.60;;;3.10;;
76725;SDS011;65651;53.154;17.916;2023-05-10T02:32:04;6.30;;;4.40;;
76725;SDS011;65651;53.154;17.916;2023-05-10T02:34:33;6.40;;;3.90;;
76725;SDS011;65651;53.154;17.916;2023-05-10T02:37:01;5.00;;;3.10;;
76725;SDS011;65651;53.154;17.916;2023-05-10T02:39:31;4.70;;;3.20;;
76725;SDS011;65651;53.154;17.916;2023-05-10T02:41:59;6.20;;;3.50;;
76725;SDS011;65651;53.154;17.916;2023-05-10T02:44:29;7.80;;;3.60;;
76725;SDS011;65651;53.154;17.916;2023-05-10T02:46:58;7.10;;;3.60;;
76725;SDS011;65651;53.154;17.916;2023-05-10T02:49:29;8.50;;;3.80;;
76725;SDS011;65651;53.154;17.916;2023-05-10T02:51:57;5.30;;;3.80;;
76725;SDS011;65651;53.154;17.916;2023-05-10T02:54:30;9.40;;;3.70;;
76725;SDS011;65651;53.154;17.916;2023-05-10T02:57:00;8.80;;;4.30;;
76725;SDS011;65651;53.154;17.916;2023-05-10T02:59:31;6.30;;;4.10;;
76725;SDS011;65651;53.154;17.916;2023-05-10T03:01:59;8.70;;;4.70;;
76725;SDS011;65651;53.154;17.916;2023-05-10T03:04:30;4.20;;;3.40;;
76725;SDS011;65651;53.154;17.916;2023-05-10T03:06:58;7.80;;;4.30;;
76725;SDS011;65651;53.154;17.916;2023-05-10T03:09:25;7.30;;;4.60;;
76725;SDS011;65651;53.154;17.916;2023-05-10T03:14:53;7.20;;;4.20;;
76725;SDS011;65651;53.154;17.916;2023-05-10T03:17:36;6.70;;;3.00;;
76725;SDS011;65651;53.154;17.916;2023-05-10T03:20:35;5.20;;;3.30;;
76725;SDS011;65651;53.154;17.916;2023-05-10T03:23:27;7.80;;;3.80;;
76725;SDS011;65651;53.154;17.916;2023-05-10T03:25:54;7.90;;;3.80;;
76725;SDS011;65651;53.154;17.916;2023-05-10T03:28:23;9.30;;;4.50;;
76725;SDS011;65651;53.154;17.916;2023-05-10T03:30:53;8.60;;;4.00;;
76725;SDS011;65651;53.154;17.916;2023-05-10T03:33:22;5.40;;;2.90;;
76725;SDS011;65651;53.154;17.916;2023-05-10T03:35:50;6.30;;;3.90;;
76725;SDS011;65651;53.154;17.916;2023-05-10T03:38:17;10.60;;;4.60;;
76725;SDS011;65651;53.154;17.916;2023-05-10T03:40:44;9.20;;;4.20;;
76725;SDS011;65651;53.154;17.916;2023-05-10T03:43:12;8.70;;;3.70;;
76725;SDS011;65651;53.154;17.916;2023-05-10T03:45:39;7.10;;;4.20;;
76725;SDS011;65651;53.154;17.916;2023-05-10T03:48:06;5.80;;;4.10;;
76725;SDS011;65651;53.154;17.916;2023-05-10T03:50:36;7.60;;;3.80;;
76725;SDS011;65651;53.154;17.916;2023-05-10T03:53:04;6.70;;;3.40;;
76725;SDS011;65651;53.154;17.916;2023-05-10T03:55:33;9.50;;;3.70;;
76725;SDS011;65651;53.154;17.916;2023-05-10T03:58:03;8.20;;;3.80;;
76725;SDS011;65651;53.154;17.916;2023-05-10T04:00:30;4.30;;;2.40;;
76725;SDS011;65651;53.154;17.916;2023-05-10T04:03:00;8.00;;;3.90;;
76725;SDS011;65651;53.154;17.916;2023-05-10T04:05:27;9.20;;;4.30;;
76725;SDS011;65651;53.154;17.916;2023-05-10T04:07:57;6.00;;;3.40;;
76725;SDS011;65651;53.154;17.916;2023-05-10T04:10:25;7.30;;;4.50;;
76725;SDS011;65651;53.154;17.916;2023-05-10T04:12:52;7.50;;;5.00;;
76725;SDS011;65651;53.154;17.916;2023-05-10T04:15:19;7.20;;;4.40;;
76725;SDS011;65651;53.154;17.916;2023-05-10T04:17:47;5.50;;;4.50;;
76725;SDS011;65651;53.154;17.916;2023-05-10T04:20:14;5.50;;;4.20;;
76725;SDS011;65651;53.154;17.916;2023-05-10T04:22:42;6.30;;;4.60;;
76725;SDS011;65651;53.154;17.916;2023-05-10T04:25:09;6.80;;;4.30;;
76725;SDS011;65651;53.154;17.916;2023-05-10T04:27:36;5.00;;;3.70;;
76725;SDS011;65651;53.154;17.916;2023-05-10T04:30:04;5.60;;;4.20;;
76725;SDS011;65651;53.154;17.916;2023-05-10T04:32:32;6.80;;;4.50;;
76725;SDS011;65651;53.154;17.916;2023-05-10T04:34:59;8.00;;;4.60;;
76725;SDS011;65651;53.154;17.916;2023-05-10T04:37:26;7.90;;;4.10;;
76725;SDS011;65651;53.154;17.916;2023-05-10T04:39:54;6.30;;;3.80;;
76725;SDS011;65651;53.154;17.916;2023-05-10T04:42:24;8.00;;;4.80;;
76725;SDS011;65651;53.154;17.916;2023-05-10T04:44:52;11.50;;;4.80;;
76725;SDS011;65651;53.154;17.916;2023-05-10T04:47:20;6.70;;;4.90;;
76725;SDS011;65651;53.154;17.916;2023-05-10T04:49:47;5.60;;;4.50;;
76725;SDS011;65651;53.154;17.916;2023-05-10T04:52:14;6.80;;;4.20;;
76725;SDS011;65651;53.154;17.916;2023-05-10T04:54:44;5.60;;;4.00;;
76725;SDS011;65651;53.154;17.916;2023-05-10T04:57:11;7.10;;;4.50;;
76725;SDS011;65651;53.154;17.916;2023-05-10T04:59:38;6.10;;;4.60;;
76725;SDS011;65651;53.154;17.916;2023-05-10T05:02:06;9.30;;;4.80;;
76725;SDS011;65651;53.154;17.916;2023-05-10T05:04:33;6.10;;;4.30;;
76725;SDS011;65651;53.154;17.916;2023-05-10T05:07:00;8.70;;;5.10;;
76725;SDS011;65651;53.154;17.916;2023-05-10T05:09:27;7.30;;;4.80;;
76725;SDS011;65651;53.154;17.916;2023-05-10T05:11:55;5.40;;;4.00;;
76725;SDS011;65651;53.154;17.916;2023-05-10T05:14:22;5.90;;;4.20;;
76725;SDS011;65651;53.154;17.916;2023-05-10T05:16:52;6.60;;;4.40;;
76725;SDS011;65651;53.154;17.916;2023-05-10T05:19:19;5.80;;;4.50;;
76725;SDS011;65651;53.154;17.916;2023-05-10T05:21:46;7.20;;;4.00;;
76725;SDS011;65651;53.154;17.916;2023-05-10T05:24:14;6.80;;;4.30;;
76725;SDS011;65651;53.154;17.916;2023-05-10T05:26:41;5.60;;;4.60;;
76725;SDS011;65651;53.154;17.916;2023-05-10T05:29:08;8.30;;;5.20;;
76725;SDS011;65651;53.154;17.916;2023-05-10T05:31:36;7.70;;;4.30;;
76725;SDS011;65651;53.154;17.916;2023-05-10T05:34:03;5.00;;;3.80;;
76725;SDS011;65651;53.154;17.916;2023-05-10T05:36:30;7.10;;;4.30;;
76725;SDS011;65651;53.154;17.916;2023-05-10T05:39:04;5.90;;;4.00;;
76725;SDS011;65651;53.154;17.916;2023-05-10T05:41:31;6.90;;;3.50;;
76725;SDS011;65651;53.154;17.916;2023-05-10T05:43:58;4.90;;;3.70;;
76725;SDS011;65651;53.154;17.916;2023-05-10T05:46:25;7.60;;;3.50;;
76725;SDS011;65651;53.154;17.916;2023-05-10T05:48:55;7.20;;;4.20;;
76725;SDS011;65651;53.154;17.916;2023-05-10T05:51:23;6.80;;;3.70;;
76725;SDS011;65651;53.154;17.916;2023-05-10T05:53:50;6.80;;;3.50;;
76725;SDS011;65651;53.154;17.916;2023-05-10T05:56:23;8.90;;;3.40;;
76725;SDS011;65651;53.154;17.916;2023-05-10T05:58:51;11.50;;;4.40;;
76725;SDS011;65651;53.154;17.916;2023-05-10T06:01:18;7.80;;;4.80;;
76725;SDS011;65651;53.154;17.916;2023-05-10T06:03:46;13.00;;;4.30;;
76725;SDS011;65651;53.154;17.916;2023-05-10T06:06:13;9.90;;;5.20;;
76725;SDS011;65651;53.154;17.916;2023-05-10T06:08:40;7.90;;;3.30;;
76725;SDS011;65651;53.154;17.916;2023-05-10T06:11:08;5.00;;;2.40;;
76725;SDS011;65651;53.154;17.916;2023-05-10T06:13:35;7.90;;;3.50;;
76725;SDS011;65651;53.154;17.916;2023-05-10T06:16:02;6.20;;;2.80;;
76725;SDS011;65651;53.154;17.916;2023-05-10T06:18:33;4.00;;;3.40;;
76725;SDS011;65651;53.154;17.916;2023-05-10T06:21:01;5.70;;;2.70;;
76725;SDS011;65651;53.154;17.916;2023-05-10T06:23:29;6.80;;;3.20;;
76725;SDS011;65651;53.154;17.916;2023-05-10T06:26:02;4.10;;;3.00;;
76725;SDS011;65651;53.154;17.916;2023-05-10T06:28:29;6.20;;;3.70;;
76725;SDS011;65651;53.154;17.916;2023-05-10T06:30:59;5.30;;;2.90;;
76725;SDS011;65651;53.154;17.916;2023-05-10T06:33:39;4.90;;;2.70;;
76725;SDS011;65651;53.154;17.916;2023-05-10T06:36:09;3.50;;;2.80;;
76725;SDS011;65651;53.154;17.916;2023-05-10T06:38:39;4.30;;;2.90;;
76725;SDS011;65651;53.154;17.916;2023-05-10T06:41:13;8.30;;;3.10;;
76725;SDS011;65651;53.154;17.916;2023-05-10T06:43:41;7.40;;;3.50;;
76725;SDS011;65651;53.154;17.916;2023-05-10T06:46:10;5.80;;;2.70;;
76725;SDS011;65651;53.154;17.916;2023-05-10T06:48:37;6.00;;;2.60;;
76725;SDS011;65651;53.154;17.916;2023-05-10T06:51:05;6.00;;;2.70;;
76725;SDS011;65651;53.154;17.916;2023-05-10T06:53:32;6.20;;;3.00;;
76725;SDS011;65651;53.154;17.916;2023-05-10T06:55:59;5.00;;;2.30;;
76725;SDS011;65651;53.154;17.916;2023-05-10T06:58:27;5.10;;;2.60;;
76725;SDS011;65651;53.154;17.916;2023-05-10T07:01:01;5.80;;;3.00;;
76725;SDS011;65651;53.154;17.916;2023-05-10T07:03:29;5.60;;;3.10;;
76725;SDS011;65651;53.154;17.916;2023-05-10T07:06:00;7.70;;;3.30;;
76725;SDS011;65651;53.154;17.916;2023-05-10T07:08:33;7.00;;;3.00;;
76725;SDS011;65651;53.154;17.916;2023-05-10T07:11:04;4.60;;;3.10;;
76725;SDS011;65651;53.154;17.916;2023-05-10T07:13:41;8.60;;;3.40;;
76725;SDS011;65651;53.154;17.916;2023-05-10T07:16:10;5.90;;;2.70;;
76725;SDS011;65651;53.154;17.916;2023-05-10T07:18:38;3.20;;;2.50;;
76725;SDS011;65651;53.154;17.916;2023-05-10T07:21:05;3.90;;;2.60;;
76725;SDS011;65651;53.154;17.916;2023-05-10T07:23:32;4.30;;;2.60;;
76725;SDS011;65651;53.154;17.916;2023-05-10T07:26:00;8.80;;;2.70;;
76725;SDS011;65651;53.154;17.916;2023-05-10T07:28:29;7.80;;;2.90;;
76725;SDS011;65651;53.154;17.916;2023-05-10T07:30:56;6.40;;;2.70;;
76725;SDS011;65651;53.154;17.916;2023-05-10T07:33:23;5.00;;;2.70;;
76725;SDS011;65651;53.154;17.916;2023-05-10T07:35:51;5.70;;;2.50;;
76725;SDS011;65651;53.154;17.916;2023-05-10T07:38:18;4.00;;;2.50;;
76725;SDS011;65651;53.154;17.916;2023-05-10T07:40:49;8.00;;;2.40;;
76725;SDS011;65651;53.154;17.916;2023-05-10T07:43:16;9.80;;;2.80;;
76725;SDS011;65651;53.154;17.916;2023-05-10T07:45:43;6.70;;;2.40;;
76725;SDS011;65651;53.154;17.916;2023-05-10T07:48:11;2.70;;;2.40;;
76725;SDS011;65651;53.154;17.916;2023-05-10T07:50:38;4.30;;;2.20;;
76725;SDS011;65651;53.154;17.916;2023-05-10T07:53:05;6.20;;;2.50;;
76725;SDS011;65651;53.154;17.916;2023-05-10T07:55:33;3.70;;;2.60;;
76725;SDS011;65651;53.154;17.916;2023-05-10T07:58:00;5.40;;;2.60;;
76725;SDS011;65651;53.154;17.916;2023-05-10T08:00:28;5.60;;;2.00;;
76725;SDS011;65651;53.154;17.916;2023-05-10T08:02:55;5.50;;;3.00;;
76725;SDS011;65651;53.154;17.916;2023-05-10T08:05:22;4.90;;;2.50;;
76725;SDS011;65651;53.154;17.916;2023-05-10T08:07:49;5.50;;;2.50;;
76725;SDS011;65651;53.154;17.916;2023-05-10T08:10:17;4.30;;;2.00;;
76725;SDS011;65651;53.154;17.916;2023-05-10T08:12:44;5.40;;;2.60;;
76725;SDS011;65651;53.154;17.916;2023-05-10T08:15:11;7.80;;;2.80;;
76725;SDS011;65651;53.154;17.916;2023-05-10T08:17:39;6.70;;;2.40;;
76725;SDS011;65651;53.154;17.916;2023-05-10T08:20:06;9.20;;;3.60;;
76725;SDS011;65651;53.154;17.916;2023-05-10T08:22:37;4.10;;;2.50;;
76725;SDS011;65651;53.154;17.916;2023-05-10T08:25:04;11.00;;;2.20;;
76725;SDS011;65651;53.154;17.916;2023-05-10T08:27:32;6.30;;;2.40;;
76725;SDS011;65651;53.154;17.916;2023-05-10T08:30:01;7.70;;;3.30;;
76725;SDS011;65651;53.154;17.916;2023-05-10T08:32:28;4.80;;;2.00;;
76725;SDS011;65651;53.154;17.916;2023-05-10T08:34:56;4.30;;;2.00;;
76725;SDS011;65651;53.154;17.916;2023-05-10T08:37:23;7.80;;;2.30;;
76725;SDS011;65651;53.154;17.916;2023-05-10T08:39:50;6.90;;;2.10;;
76725;SDS011;65651;53.154;17.916;2023-05-10T08:42:19;7.00;;;2.70;;
76725;SDS011;65651;53.154;17.916;2023-05-10T08:44:49;8.90;;;2.70;;
76725;SDS011;65651;53.154;17.916;2023-05-10T08:47:17;8.40;;;2.30;;
76725;SDS011;65651;53.154;17.916;2023-05-10T08:49:46;4.30;;;2.30;;
76725;SDS011;65651;53.154;17.916;2023-05-10T08:52:18;7.70;;;3.30;;
76725;SDS011;65651;53.154;17.916;2023-05-10T08:54:46;7.60;;;2.90;;
76725;SDS011;65651;53.154;17.916;2023-05-10T08:57:16;7.20;;;3.40;;
76725;SDS011;65651;53.154;17.916;2023-05-10T08:59:45;9.70;;;3.20;;
76725;SDS011;65651;53.154;17.916;2023-05-10T09:02:13;6.00;;;3.20;;
76725;SDS011;65651;53.154;17.916;2023-05-10T09:04:41;8.50;;;3.20;;
76725;SDS011;65651;53.154;17.916;2023-05-10T09:07:08;4.30;;;2.30;;
76725;SDS011;65651;53.154;17.916;2023-05-10T09:09:35;13.00;;;4.60;;
76725;SDS011;65651;53.154;17.916;2023-05-10T09:12:04;4.70;;;2.40;;
76725;SDS011;65651;53.154;17.916;2023-05-10T09:14:33;6.00;;;2.40;;
76725;SDS011;65651;53.154;17.916;2023-05-10T09:17:02;5.10;;;2.80;;
76725;SDS011;65651;53.154;17.916;2023-05-10T09:19:29;4.30;;;2.00;;
76725;SDS011;65651;53.154;17.916;2023-05-10T09:21:56;4.00;;;2.70;;
76725;SDS011;65651;53.154;17.916;2023-05-10T09:24:29;10.20;;;3.90;;
76725;SDS011;65651;53.154;17.916;2023-05-10T09:26:57;12.40;;;6.50;;
76725;SDS011;65651;53.154;17.916;2023-05-10T09:29:38;8.30;;;2.90;;
76725;SDS011;65651;53.154;17.916;2023-05-10T09:32:10;7.60;;;3.30;;
76725;SDS011;65651;53.154;17.916;2023-05-10T09:34:37;11.90;;;3.00;;
76725;SDS011;65651;53.154;17.916;2023-05-10T09:37:09;15.00;;;5.30;;
76725;SDS011;65651;53.154;17.916;2023-05-10T09:39:37;6.00;;;2.30;;
76725;SDS011;65651;53.154;17.916;2023-05-10T09:42:06;7.30;;;2.20;;
76725;SDS011;65651;53.154;17.916;2023-05-10T09:44:35;6.90;;;2.30;;
76725;SDS011;65651;53.154;17.916;2023-05-10T09:47:05;7.50;;;2.50;;
76725;SDS011;65651;53.154;17.916;2023-05-10T09:49:32;7.60;;;2.60;;
76725;SDS011;65651;53.154;17.916;2023-05-10T09:52:01;3.80;;;2.40;;
76725;SDS011;65651;53.154;17.916;2023-05-10T09:54:30;4.50;;;2.90;;
76725;SDS011;65651;53.154;17.916;2023-05-10T09:56:58;8.20;;;3.10;;
76725;SDS011;65651;53.154;17.916;2023-05-10T09:59:26;10.50;;;2.30;;
76725;SDS011;65651;53.154;17.916;2023-05-10T10:01:59;6.20;;;2.30;;
76725;SDS011;65651;53.154;17.916;2023-05-10T10:04:27;5.20;;;3.10;;
76725;SDS011;65651;53.154;17.916;2023-05-10T10:07:01;23.10;;;3.20;;
76725;SDS011;65651;53.154;17.916;2023-05-10T10:09:30;8.10;;;2.40;;
76725;SDS011;65651;53.154;17.916;2023-05-10T10:12:02;7.00;;;2.90;;
76725;SDS011;65651;53.154;17.916;2023-05-10T10:14:30;5.30;;;2.70;;
76725;SDS011;65651;53.154;17.916;2023-05-10T10:16:57;5.90;;;2.40;;
76725;SDS011;65651;53.154;17.916;2023-05-10T10:19:27;7.10;;;2.90;;
76725;SDS011;65651;53.154;17.916;2023-05-10T10:21:55;6.50;;;2.10;;
76725;SDS011;65651;53.154;17.916;2023-05-10T10:24:22;6.90;;;2.30;;
76725;SDS011;65651;53.154;17.916;2023-05-10T10:26:49;12.10;;;3.50;;
76725;SDS011;65651;53.154;17.916;2023-05-10T10:34:35;7.20;;;2.50;;
76725;SDS011;65651;53.154;17.916;2023-05-10T10:37:04;10.00;;;1.90;;
76725;SDS011;65651;53.154;17.916;2023-05-10T10:39:33;6.30;;;2.40;;
76725;SDS011;65651;53.154;17.916;2023-05-10T10:42:05;5.80;;;2.50;;
76725;SDS011;65651;53.154;17.916;2023-05-10T10:49:50;6.40;;;2.60;;
76725;SDS011;65651;53.154;17.916;2023-05-10T10:52:27;18.20;;;3.00;;
76725;SDS011;65651;53.154;17.916;2023-05-10T10:55:12;3.70;;;2.40;;
76725;SDS011;65651;53.154;17.916;2023-05-10T11:00:29;12.20;;;4.40;;
76725;SDS011;65651;53.154;17.916;2023-05-10T11:08:17;5.00;;;2.10;;
76725;SDS011;65651;53.154;17.916;2023-05-10T11:13:46;7.60;;;3.10;;
76725;SDS011;65651;53.154;17.916;2023-05-10T11:16:20;14.00;;;2.90;;
76725;SDS011;65651;53.154;17.916;2023-05-10T11:21:32;5.20;;;2.60;;
76725;SDS011;65651;53.154;17.916;2023-05-10T11:24:00;9.40;;;2.50;;
76725;SDS011;65651;53.154;17.916;2023-05-10T11:26:36;6.90;;;3.10;;
76725;SDS011;65651;53.154;17.916;2023-05-10T11:29:04;8.90;;;2.30;;
76725;SDS011;65651;53.154;17.916;2023-05-10T11:31:32;14.60;;;3.70;;
76725;SDS011;65651;53.154;17.916;2023-05-10T11:33:59;11.90;;;4.80;;
76725;SDS011;65651;53.154;17.916;2023-05-10T11:36:29;5.60;;;2.90;;
76725;SDS011;65651;53.154;17.916;2023-05-10T11:39:01;8.50;;;2.20;;
76725;SDS011;65651;53.154;17.916;2023-05-10T11:41:30;4.80;;;2.30;;
76725;SDS011;65651;53.154;17.916;2023-05-10T11:43:58;12.10;;;3.20;;
76725;SDS011;65651;53.154;17.916;2023-05-10T11:46:26;6.70;;;2.50;;
76725;SDS011;65651;53.154;17.916;2023-05-10T11:48:58;8.00;;;2.70;;
76725;SDS011;65651;53.154;17.916;2023-05-10T11:51:34;5.10;;;2.50;;
76725;SDS011;65651;53.154;17.916;2023-05-10T11:54:06;6.30;;;2.80;;
76725;SDS011;65651;53.154;17.916;2023-05-10T11:56:38;4.10;;;2.30;;
76725;SDS011;65651;53.154;17.916;2023-05-10T11:59:06;3.30;;;1.80;;
76725;SDS011;65651;53.154;17.916;2023-05-10T12:01:34;8.10;;;2.60;;
76725;SDS011;65651;53.154;17.916;2023-05-10T12:04:02;13.80;;;2.50;;
76725;SDS011;65651;53.154;17.916;2023-05-10T12:06:31;9.40;;;2.90;;
76725;SDS011;65651;53.154;17.916;2023-05-10T12:09:01;14.30;;;2.40;;
76725;SDS011;65651;53.154;17.916;2023-05-10T12:11:36;6.10;;;2.40;;
76725;SDS011;65651;53.154;17.916;2023-05-10T12:14:06;7.60;;;2.60;;
76725;SDS011;65651;53.154;17.916;2023-05-10T12:16:35;5.10;;;2.30;;
76725;SDS011;65651;53.154;17.916;2023-05-10T12:19:02;14.50;;;2.80;;
76725;SDS011;65651;53.154;17.916;2023-05-10T12:21:30;7.10;;;2.20;;
76725;SDS011;65651;53.154;17.916;2023-05-10T12:23:59;9.20;;;2.90;;
76725;SDS011;65651;53.154;17.916;2023-05-10T12:26:31;12.30;;;2.20;;
76725;SDS011;65651;53.154;17.916;2023-05-10T12:31:59;8.30;;;2.90;;
76725;SDS011;65651;53.154;17.916;2023-05-10T12:34:29;8.00;;;2.80;;
76725;SDS011;65651;53.154;17.916;2023-05-10T12:36:58;5.80;;;2.50;;
76725;SDS011;65651;53.154;17.916;2023-05-10T12:39:25;7.30;;;2.40;;
76725;SDS011;65651;53.154;17.916;2023-05-10T12:41:53;13.50;;;2.60;;
76725;SDS011;65651;53.154;17.916;2023-05-10T12:44:21;8.60;;;2.70;;
76725;SDS011;65651;53.154;17.916;2023-05-10T12:46:48;10.60;;;2.50;;
76725;SDS011;65651;53.154;17.916;2023-05-10T12:49:18;5.80;;;2.00;;
76725;SDS011;65651;53.154;17.916;2023-05-10T12:51:46;9.00;;;2.40;;
76725;SDS011;65651;53.154;17.916;2023-05-10T12:54:13;6.90;;;2.40;;
76725;SDS011;65651;53.154;17.916;2023-05-10T12:56:41;7.20;;;1.60;;
76725;SDS011;65651;53.154;17.916;2023-05-10T12:59:09;12.30;;;2.80;;
76725;SDS011;65651;53.154;17.916;2023-05-10T13:01:39;7.90;;;2.20;;
76725;SDS011;65651;53.154;17.916;2023-05-10T13:04:06;7.20;;;2.20;;
76725;SDS011;65651;53.154;17.916;2023-05-10T13:06:34;9.80;;;2.20;;
76725;SDS011;65651;53.154;17.916;2023-05-10T13:09:01;13.10;;;2.10;;
76725;SDS011;65651;53.154;17.916;2023-05-10T13:11:29;9.90;;;2.30;;
76725;SDS011;65651;53.154;17.916;2023-05-10T13:13:56;9.80;;;2.20;;
76725;SDS011;65651;53.154;17.916;2023-05-10T13:16:24;8.50;;;2.10;;
76725;SDS011;65651;53.154;17.916;2023-05-10T13:18:52;7.10;;;2.40;;
76725;SDS011;65651;53.154;17.916;2023-05-10T13:21:19;8.10;;;2.00;;
76725;SDS011;65651;53.154;17.916;2023-05-10T13:23:46;6.20;;;2.20;;
76725;SDS011;65651;53.154;17.916;2023-05-10T13:26:15;10.80;;;2.40;;
76725;SDS011;65651;53.154;17.916;2023-05-10T13:28:43;7.50;;;2.40;;
76725;SDS011;65651;53.154;17.916;2023-05-10T13:31:10;4.10;;;2.10;;
76725;SDS011;65651;53.154;17.916;2023-05-10T13:33:37;13.40;;;2.30;;
76725;SDS011;65651;53.154;17.916;2023-05-10T13:36:05;6.30;;;2.10;;
76725;SDS011;65651;53.154;17.916;2023-05-10T13:38:33;6.70;;;2.20;;
76725;SDS011;65651;53.154;17.916;2023-05-10T13:41:00;8.50;;;1.80;;
76725;SDS011;65651;53.154;17.916;2023-05-10T13:43:28;9.50;;;2.50;;
76725;SDS011;65651;53.154;17.916;2023-05-10T13:45:56;6.40;;;2.20;;
76725;SDS011;65651;53.154;17.916;2023-05-10T13:48:24;4.50;;;2.20;;
76725;SDS011;65651;53.154;17.916;2023-05-10T13:50:51;6.90;;;2.20;;
76725;SDS011;65651;53.154;17.916;2023-05-10T13:53:18;13.60;;;2.70;;
76725;SDS011;65651;53.154;17.916;2023-05-10T13:55:46;6.30;;;2.70;;
76725;SDS011;65651;53.154;17.916;2023-05-10T13:58:14;6.70;;;2.00;;
76725;SDS011;65651;53.154;17.916;2023-05-10T14:00:41;6.40;;;2.10;;
76725;SDS011;65651;53.154;17.916;2023-05-10T14:03:08;9.10;;;2.70;;
76725;SDS011;65651;53.154;17.916;2023-05-10T14:05:37;10.60;;;2.00;;
76725;SDS011;65651;53.154;17.916;2023-05-10T14:08:05;10.80;;;3.20;;
76725;SDS011;65651;53.154;17.916;2023-05-10T14:10:32;10.20;;;2.50;;
76725;SDS011;65651;53.154;17.916;2023-05-10T14:12:59;13.10;;;3.20;;
76725;SDS011;65651;53.154;17.916;2023-05-10T14:15:27;4.90;;;2.00;;
76725;SDS011;65651;53.154;17.916;2023-05-10T14:17:54;11.30;;;3.30;;
76725;SDS011;65651;53.154;17.916;2023-05-10T14:20:22;8.60;;;2.70;;
76725;SDS011;65651;53.154;17.916;2023-05-10T14:22:52;9.00;;;2.20;;
76725;SDS011;65651;53.154;17.916;2023-05-10T14:25:19;7.90;;;2.50;;
76725;SDS011;65651;53.154;17.916;2023-05-10T14:27:47;9.60;;;2.30;;
76725;SDS011;65651;53.154;17.916;2023-05-10T14:30:14;6.90;;;2.40;;
76725;SDS011;65651;53.154;17.916;2023-05-10T14:32:41;5.30;;;1.80;;
76725;SDS011;65651;53.154;17.916;2023-05-10T14:35:09;6.20;;;2.00;;
76725;SDS011;65651;53.154;17.916;2023-05-10T14:37:36;9.80;;;2.70;;
76725;SDS011;65651;53.154;17.916;2023-05-10T14:40:05;28.50;;;2.90;;
76725;SDS011;65651;53.154;17.916;2023-05-10T14:42:36;7.60;;;2.20;;
76725;SDS011;65651;53.154;17.916;2023-05-10T14:45:04;7.80;;;2.60;;
76725;SDS011;65651;53.154;17.916;2023-05-10T14:47:32;5.20;;;2.00;;
76725;SDS011;65651;53.154;17.916;2023-05-10T14:49:59;5.60;;;2.30;;
76725;SDS011;65651;53.154;17.916;2023-05-10T14:52:27;4.50;;;2.10;;
76725;SDS011;65651;53.154;17.916;2023-05-10T14:54:54;8.40;;;2.30;;
76725;SDS011;65651;53.154;17.916;2023-05-10T14:57:21;6.50;;;2.30;;
76725;SDS011;65651;53.154;17.916;2023-05-10T14:59:49;9.90;;;2.10;;
76725;SDS011;65651;53.154;17.916;2023-05-10T15:02:16;5.40;;;2.60;;
76725;SDS011;65651;53.154;17.916;2023-05-10T15:04:43;8.30;;;3.00;;
76725;SDS011;65651;53.154;17.916;2023-05-10T15:07:10;6.80;;;2.10;;
76725;SDS011;65651;53.154;17.916;2023-05-10T15:09:41;3.90;;;2.20;;
76725;SDS011;65651;53.154;17.916;2023-05-10T15:12:09;5.70;;;2.20;;
76725;SDS011;65651;53.154;17.916;2023-05-10T15:14:37;4.20;;;2.00;;
76725;SDS011;65651;53.154;17.916;2023-05-10T15:17:06;3.40;;;2.30;;
76725;SDS011;65651;53.154;17.916;2023-05-10T15:19:34;7.20;;;2.50;;
76725;SDS011;65651;53.154;17.916;2023-05-10T15:22:02;6.60;;;2.40;;
76725;SDS011;65651;53.154;17.916;2023-05-10T15:24:30;9.60;;;2.30;;
76725;SDS011;65651;53.154;17.916;2023-05-10T15:26:58;8.50;;;2.00;;
76725;SDS011;65651;53.154;17.916;2023-05-10T15:29:25;8.40;;;2.10;;
76725;SDS011;65651;53.154;17.916;2023-05-10T15:31:53;9.60;;;2.30;;
76725;SDS011;65651;53.154;17.916;2023-05-10T15:34:20;3.70;;;1.70;;